createdAt,value
2019-03-24T00:01:41.419Z,61.30
2019-03-24T00:04:10.043Z,61.40
2019-03-24T00:06:40.199Z,62.10
2019-03-24T00:09:10.495Z,62.70
2019-03-24T00:11:40.712Z,62.30
2019-03-24T00:14:10.900Z,62.40
2019-03-24T00:16:41.258Z,62.50
2019-03-24T00:19:11.409Z,63.30
2019-03-24T00:21:50.806Z,62.40
2019-03-24T00:24:20.403Z,63.10
2019-03-24T00:26:49.912Z,63.10
2019-03-24T00:29:19.519Z,63.20
2019-03-24T00:31:49.163Z,62.80
2019-03-24T00:34:18.771Z,62.40
2019-03-24T00:36:48.229Z,63.10
2019-03-24T00:39:17.722Z,63.70
2019-03-24T00:41:47.347Z,63.80
2019-03-24T00:44:16.894Z,63.70
2019-03-24T00:46:46.565Z,63.70
2019-03-24T00:49:16.253Z,63.30
2019-03-24T00:51:45.817Z,63.60
2019-03-24T00:54:15.418Z,64.40
2019-03-24T00:56:45.021Z,64.60
2019-03-24T00:59:14.514Z,64.60
2019-03-24T01:01:44.004Z,65.00
2019-03-24T01:04:13.546Z,65.50
2019-03-24T01:06:43.291Z,64.60
2019-03-24T01:09:12.899Z,65.40
2019-03-24T01:11:42.503Z,64.20
2019-03-24T01:14:12.058Z,64.60
2019-03-24T01:16:41.694Z,65.00
2019-03-24T01:19:11.174Z,65.10
2019-03-24T01:21:40.826Z,65.10
2019-03-24T01:24:10.461Z,65.60
2019-03-24T01:26:40.095Z,65.20
2019-03-24T01:29:09.746Z,65.20
2019-03-24T01:31:40.387Z,65.00
2019-03-24T01:34:14.243Z,64.80
2019-03-24T01:36:44.386Z,64.80
2019-03-24T01:39:14.455Z,64.90
2019-03-24T01:41:44.547Z,65.90
2019-03-24T01:44:14.638Z,66.00
2019-03-24T01:46:45.049Z,66.20
2019-03-24T01:49:15.068Z,66.20
2019-03-24T01:51:45.316Z,66.30
2019-03-24T01:54:15.547Z,66.60
2019-03-24T01:56:45.643Z,66.50
2019-03-24T01:59:16.237Z,67.00
2019-03-24T02:01:46.518Z,67.20
2019-03-24T02:04:16.882Z,67.20
2019-03-24T02:06:47.253Z,67.70
2019-03-24T02:09:17.695Z,68.00
2019-03-24T02:11:47.960Z,67.70
2019-03-24T02:14:20.330Z,67.50
2019-03-24T02:16:51.171Z,67.20
2019-03-24T02:19:21.685Z,66.80
2019-03-24T02:21:54.598Z,66.10
2019-03-24T02:24:25.018Z,65.40
2019-03-24T02:26:55.278Z,66.20
2019-03-24T02:29:25.267Z,66.60
2019-03-24T02:31:56.068Z,66.60
2019-03-24T02:34:26.087Z,66.60
2019-03-24T02:36:56.637Z,67.00
2019-03-24T02:39:29.427Z,67.60
2019-03-24T02:41:59.628Z,68.10
2019-03-24T02:44:29.949Z,68.30
2019-03-24T02:47:00.509Z,67.80
2019-03-24T02:49:30.733Z,68.00
2019-03-24T02:52:02.670Z,66.70
2019-03-24T02:54:33.026Z,67.50
2019-03-24T02:57:03.481Z,68.10
2019-03-24T02:59:33.981Z,67.50
2019-03-24T03:02:04.866Z,67.50
2019-03-24T03:04:35.858Z,68.10
2019-03-24T03:07:06.465Z,68.10
2019-03-24T03:09:36.915Z,68.00
2019-03-24T03:12:07.244Z,67.90
2019-03-24T03:14:37.334Z,67.90
2019-03-24T03:17:07.586Z,68.40
2019-03-24T03:19:38.087Z,68.60
2019-03-24T03:22:08.380Z,68.40
2019-03-24T03:24:39.126Z,68.30
2019-03-24T03:27:09.908Z,69.00
2019-03-24T03:29:40.221Z,68.40
2019-03-24T03:32:10.637Z,68.40
2019-03-24T03:34:40.756Z,69.30
2019-03-24T03:37:13.757Z,68.70
2019-03-24T03:39:44.677Z,68.70
2019-03-24T03:42:15.346Z,69.80
2019-03-24T03:44:46.064Z,68.90
2019-03-24T03:47:16.802Z,69.20
2019-03-24T03:49:47.342Z,69.30
2019-03-24T03:52:18.147Z,69.80
2019-03-24T03:54:48.279Z,69.40
2019-03-24T03:57:18.577Z,69.80
2019-03-24T03:59:48.894Z,69.90
2019-03-24T04:02:19.501Z,70.30
2019-03-24T04:04:49.928Z,70.70
2019-03-24T04:07:20.977Z,71.00
2019-03-24T04:09:51.725Z,71.30
2019-03-24T04:12:23.551Z,71.00
2019-03-24T04:14:53.606Z,70.90
2019-03-24T04:17:24.889Z,71.40
2019-03-24T04:19:55.311Z,71.30
2019-03-24T04:22:27.137Z,71.20
2019-03-24T04:24:57.443Z,71.20
2019-03-24T04:27:27.675Z,70.90
2019-03-24T04:29:58.061Z,71.60
2019-03-24T04:32:28.280Z,71.30
2019-03-24T04:35:04.340Z,70.90
2019-03-24T04:37:35.590Z,71.00
2019-03-24T04:40:06.912Z,71.30
2019-03-24T04:42:38.696Z,71.00
2019-03-24T04:45:09.087Z,70.50
2019-03-24T04:47:39.829Z,70.30
2019-03-24T04:50:10.673Z,70.10
2019-03-24T04:52:40.893Z,70.30
2019-03-24T04:55:11.632Z,70.90
2019-03-24T04:57:44.710Z,71.00
2019-03-24T05:00:15.118Z,71.00
2019-03-24T05:02:48.697Z,70.50
2019-03-24T05:05:19.341Z,70.60
2019-03-24T05:07:49.723Z,70.90
2019-03-24T05:10:32.072Z,71.10
2019-03-24T05:13:03.104Z,71.10
2019-03-24T05:15:34.117Z,71.40
2019-03-24T05:18:04.982Z,71.20
2019-03-24T05:20:37.568Z,71.20
2019-03-24T05:23:10.640Z,71.40
2019-03-24T05:25:41.478Z,71.40
2019-03-24T05:28:12.133Z,71.40
2019-03-24T05:30:42.379Z,72.00
2019-03-24T05:33:13.500Z,71.20
2019-03-24T05:35:45.184Z,71.40
2019-03-24T05:38:16.256Z,71.20
2019-03-24T05:40:50.314Z,71.50
2019-03-24T05:43:24.030Z,71.20
2019-03-24T05:45:58.020Z,71.70
2019-03-24T05:48:29.094Z,71.50
2019-03-24T05:51:01.954Z,71.70
2019-03-24T05:53:35.724Z,71.20
2019-03-24T05:56:12.963Z,70.80
2019-03-24T05:58:45.502Z,70.60
2019-03-24T06:01:22.443Z,70.70
2019-03-24T06:03:53.672Z,70.80
2019-03-24T06:06:25.032Z,71.00
2019-03-24T06:08:59.141Z,71.20
2019-03-24T06:11:30.289Z,70.80
2019-03-24T06:14:05.896Z,70.60
2019-03-24T06:16:49.145Z,70.80
2019-03-24T06:19:21.913Z,70.30
2019-03-24T06:21:51.916Z,69.90
2019-03-24T06:24:22.410Z,69.90
2019-03-24T06:26:53.369Z,70.00
2019-03-24T06:29:48.463Z,70.30
2019-03-24T06:32:18.867Z,70.10
2019-03-24T06:34:49.451Z,69.70
2019-03-24T06:37:20.133Z,69.20
2019-03-24T06:39:50.473Z,69.30
2019-03-24T06:42:21.045Z,69.20
2019-03-24T06:44:51.716Z,69.50
2019-03-24T06:47:26.454Z,69.30
2019-03-24T06:49:57.005Z,68.50
2019-03-24T06:52:27.577Z,68.40
2019-03-24T06:54:58.466Z,68.10
2019-03-24T06:57:32.148Z,68.40
2019-03-24T07:00:05.862Z,68.20
2019-03-24T07:02:39.630Z,67.90
2019-03-24T07:05:11.303Z,68.90
2019-03-24T07:07:44.144Z,68.10
2019-03-24T07:10:33.208Z,68.60
2019-03-24T07:13:03.159Z,68.10
2019-03-24T07:15:33.659Z,68.50
2019-03-24T07:18:08.313Z,68.30
2019-03-24T07:20:36.291Z,67.60
2019-03-24T07:23:06.319Z,67.90
2019-03-24T07:25:36.140Z,67.50
2019-03-24T07:28:05.837Z,67.10
2019-03-24T07:30:35.311Z,67.50
2019-03-24T07:33:04.999Z,67.70
2019-03-24T07:35:34.566Z,68.40
2019-03-24T07:38:04.204Z,68.10
2019-03-24T07:40:33.726Z,68.20
2019-03-24T07:43:03.240Z,68.60
2019-03-24T07:45:32.925Z,68.80
2019-03-24T07:48:02.466Z,69.10
2019-03-24T07:50:32.010Z,68.20
2019-03-24T07:53:01.530Z,67.20
2019-03-24T07:55:31.066Z,67.60
2019-03-24T07:58:00.694Z,67.10
2019-03-24T08:00:35.166Z,67.10
2019-03-24T08:03:05.554Z,66.70
2019-03-24T08:05:35.201Z,66.30
2019-03-24T08:08:04.917Z,65.80
2019-03-24T08:10:34.571Z,65.50
2019-03-24T08:13:07.155Z,65.30
2019-03-24T08:15:35.594Z,64.90
2019-03-24T08:18:05.193Z,65.80
2019-03-24T08:20:34.846Z,65.70
2019-03-24T08:23:04.627Z,64.80
2019-03-24T08:25:35.503Z,64.80
2019-03-24T08:28:05.317Z,65.50
2019-03-24T08:30:36.735Z,65.10
2019-03-24T08:33:06.692Z,65.30
2019-03-24T08:35:36.322Z,64.70
2019-03-24T08:38:06.502Z,64.80
2019-03-24T08:40:36.089Z,64.10
2019-03-24T08:43:05.901Z,63.80
2019-03-24T08:45:35.477Z,63.50
2019-03-24T08:48:05.484Z,64.00
2019-03-24T08:50:35.220Z,63.60
2019-03-24T08:53:04.870Z,63.80
2019-03-24T08:55:34.560Z,63.90
2019-03-24T08:58:04.268Z,63.30
2019-03-24T09:00:33.963Z,63.30
2019-03-24T09:03:03.705Z,63.30
2019-03-24T09:05:33.760Z,63.60
2019-03-24T09:08:03.612Z,63.60
2019-03-24T09:10:33.274Z,63.30
2019-03-24T09:13:02.846Z,62.40
2019-03-24T09:15:32.440Z,62.60
2019-03-24T09:18:01.983Z,62.20
2019-03-24T09:20:41.190Z,61.70
2019-03-24T09:23:02.957Z,62.00
2019-03-24T09:25:32.704Z,61.50
2019-03-24T09:28:02.423Z,60.60
2019-03-24T09:30:33.631Z,60.70
2019-03-24T09:33:03.379Z,60.40
2019-03-24T09:35:33.275Z,60.00
2019-03-24T09:38:03.112Z,59.50
2019-03-24T09:40:33.468Z,59.70
2019-03-24T09:43:04.205Z,60.40
2019-03-24T09:45:34.244Z,59.20
2019-03-24T09:48:04.673Z,59.30
2019-03-24T09:50:34.271Z,59.00
2019-03-24T09:53:04.002Z,58.30
2019-03-24T09:55:33.672Z,58.60
2019-03-24T09:58:03.240Z,58.20
2019-03-24T10:00:32.842Z,58.10
2019-03-24T10:03:02.432Z,58.00
2019-03-24T10:05:32.083Z,57.40
2019-03-24T10:08:01.551Z,57.30
2019-03-24T10:10:31.240Z,57.50
2019-03-24T10:13:00.775Z,56.80
2019-03-24T10:15:30.363Z,57.30
2019-03-24T10:17:59.960Z,57.10
2019-03-24T10:20:29.495Z,56.70
2019-03-24T10:22:58.970Z,56.60
2019-03-24T10:25:28.503Z,55.60
2019-03-24T10:27:58.159Z,55.00
2019-03-24T10:30:27.781Z,55.20
2019-03-24T10:32:57.497Z,55.20
2019-03-24T10:35:27.049Z,55.00
2019-03-24T10:37:56.646Z,55.10
2019-03-24T10:40:28.918Z,55.30
2019-03-24T10:42:57.643Z,55.00
2019-03-24T10:45:27.279Z,55.20
2019-03-24T10:47:56.885Z,54.70
2019-03-24T10:50:26.585Z,55.00
2019-03-24T10:52:56.267Z,55.00
2019-03-24T10:55:25.866Z,55.20
2019-03-24T10:57:55.410Z,54.30
2019-03-24T11:00:49.750Z,54.00
2019-03-24T11:03:19.392Z,53.30
2019-03-24T11:05:49.011Z,53.20
2019-03-24T11:08:18.709Z,53.50
2019-03-24T11:10:48.339Z,52.80
2019-03-24T11:13:17.967Z,52.70
2019-03-24T11:15:47.526Z,52.50
2019-03-24T11:18:17.086Z,51.40
2019-03-24T11:20:46.686Z,51.30
2019-03-24T11:23:16.139Z,51.30
2019-03-24T11:25:45.609Z,50.30
2019-03-24T11:28:15.107Z,51.80
2019-03-24T11:30:44.773Z,51.10
2019-03-24T11:33:14.239Z,51.50
2019-03-24T11:35:44.183Z,51.50
2019-03-24T11:38:13.742Z,53.50
2019-03-24T11:40:43.276Z,50.90
2019-03-24T11:43:12.835Z,50.20
2019-03-24T11:45:42.307Z,52.10
2019-03-24T11:48:11.787Z,52.00
2019-03-24T11:50:41.628Z,52.00
2019-03-24T11:53:11.506Z,52.10
2019-03-24T11:55:41.106Z,52.20
2019-03-24T11:58:10.794Z,50.30
2019-03-24T12:00:40.862Z,50.00
2019-03-24T12:03:10.501Z,49.70
2019-03-24T12:05:40.139Z,47.00
2019-03-24T12:08:09.844Z,45.80
2019-03-24T12:10:39.371Z,46.60
2019-03-24T12:13:08.992Z,46.70
2019-03-24T12:15:38.738Z,47.50
2019-03-24T12:18:08.298Z,45.80
2019-03-24T12:20:37.891Z,46.30
2019-03-24T12:23:07.591Z,46.10
2019-03-24T12:25:37.055Z,44.80
2019-03-24T12:28:06.757Z,46.90
2019-03-24T12:30:36.257Z,45.10
2019-03-24T12:33:06.196Z,45.20
2019-03-24T12:35:35.846Z,46.90
2019-03-24T12:38:05.523Z,43.50
2019-03-24T12:40:35.151Z,44.50
2019-03-24T12:43:04.819Z,41.90
2019-03-24T12:45:34.362Z,41.60
2019-03-24T12:48:04.184Z,41.10
2019-03-24T12:50:34.105Z,40.40
2019-03-24T12:53:03.794Z,39.80
2019-03-24T12:55:33.540Z,39.80
2019-03-24T12:58:03.320Z,40.50
2019-03-24T13:00:38.265Z,40.30
2019-03-24T13:03:08.173Z,39.30
2019-03-24T13:05:37.904Z,39.50
2019-03-24T13:08:18.077Z,38.70
2019-03-24T13:10:48.267Z,39.10
2019-03-24T13:13:18.119Z,39.20
2019-03-24T13:15:47.900Z,41.00
2019-03-24T13:18:17.634Z,40.30
2019-03-24T13:20:47.429Z,41.10
2019-03-24T13:23:17.056Z,38.70
2019-03-24T13:25:46.785Z,38.20
2019-03-24T13:28:16.504Z,37.80
2019-03-24T13:30:46.274Z,36.70
2019-03-24T13:33:16.057Z,37.10
2019-03-24T13:35:45.865Z,36.10
2019-03-24T13:38:15.527Z,35.80
2019-03-24T13:40:45.195Z,35.20
2019-03-24T13:43:14.958Z,34.70
2019-03-24T13:45:44.488Z,34.60
2019-03-24T13:48:14.218Z,33.80
2019-03-24T13:50:43.955Z,33.20
2019-03-24T13:53:13.651Z,33.00
2019-03-24T13:55:43.405Z,32.50
2019-03-24T13:58:13.211Z,32.30
2019-03-24T14:00:42.941Z,31.60
2019-03-24T14:03:12.531Z,31.50
2019-03-24T14:05:42.201Z,31.30
2019-03-24T14:08:11.993Z,30.90
2019-03-24T14:10:41.658Z,30.40
2019-03-24T14:13:11.389Z,29.90
2019-03-24T14:15:41.015Z,29.70
2019-03-24T14:18:10.819Z,30.20
2019-03-24T14:20:43.606Z,30.30
2019-03-24T14:23:11.802Z,30.00
2019-03-24T14:25:41.362Z,31.20
2019-03-24T14:28:10.981Z,29.90
2019-03-24T14:30:45.071Z,30.30
2019-03-24T14:33:15.050Z,29.80
2019-03-24T14:35:44.718Z,29.40
2019-03-24T14:38:14.459Z,30.40
2019-03-24T14:40:44.193Z,30.00
2019-03-24T14:43:13.836Z,30.00
2019-03-24T14:45:43.466Z,29.40
2019-03-24T14:48:13.090Z,29.60
2019-03-24T14:50:53.631Z,29.70
2019-03-24T14:53:13.953Z,29.40
2019-03-24T14:55:43.881Z,29.70
2019-03-24T14:58:14.058Z,29.60
2019-03-24T15:00:44.355Z,29.60
2019-03-24T15:03:14.223Z,29.60
2019-03-24T15:05:44.176Z,30.00
2019-03-24T15:08:14.070Z,30.00
2019-03-24T15:10:43.727Z,30.50
2019-03-24T15:13:13.385Z,30.40
2019-03-24T15:15:43.057Z,30.00
2019-03-24T15:18:12.760Z,30.20
2019-03-24T15:20:42.399Z,31.20
2019-03-24T15:23:12.155Z,31.00
2019-03-24T15:25:41.804Z,30.50
2019-03-24T15:28:11.432Z,31.10
2019-03-24T15:30:41.083Z,31.30
2019-03-24T15:33:10.652Z,30.90
2019-03-24T15:35:40.427Z,30.50
2019-03-24T15:38:09.998Z,31.20
2019-03-24T15:40:39.714Z,32.10
2019-03-24T15:43:09.436Z,32.00
2019-03-24T15:45:39.066Z,31.90
2019-03-24T15:48:08.803Z,32.60
2019-03-24T15:50:38.454Z,33.10
2019-03-24T15:53:08.209Z,33.40
2019-03-24T15:55:37.766Z,33.50
2019-03-24T15:58:07.312Z,33.20
2019-03-24T16:00:48.024Z,33.40
2019-03-24T16:03:17.846Z,33.60
2019-03-24T16:05:47.467Z,34.10
2019-03-24T16:08:17.248Z,34.50
2019-03-24T16:10:46.859Z,34.80
2019-03-24T16:13:16.381Z,35.50
2019-03-24T16:15:46.011Z,35.30
2019-03-24T16:18:15.707Z,36.10
2019-03-24T16:20:45.407Z,35.90
2019-03-24T16:23:15.034Z,36.10
2019-03-24T16:25:44.626Z,36.30
2019-03-24T16:28:14.170Z,36.00
2019-03-24T16:30:43.811Z,36.50
2019-03-24T16:33:13.443Z,37.60
2019-03-24T16:35:43.139Z,37.80
2019-03-24T16:38:12.790Z,38.30
2019-03-24T16:40:42.408Z,38.40
2019-03-24T16:43:12.020Z,38.80
2019-03-24T16:45:41.686Z,39.40
2019-03-24T16:48:11.298Z,39.70
2019-03-24T16:50:40.838Z,40.00
2019-03-24T16:53:10.438Z,40.20
2019-03-24T16:55:40.173Z,40.40
2019-03-24T16:58:09.776Z,41.00
2019-03-24T17:00:39.415Z,41.40
2019-03-24T17:03:09.056Z,41.80
2019-03-24T17:05:38.724Z,41.90
2019-03-24T17:08:08.423Z,42.00
2019-03-24T17:10:38.057Z,42.30
2019-03-24T17:13:07.619Z,42.40
2019-03-24T17:15:37.337Z,43.00
2019-03-24T17:18:07.188Z,42.90
2019-03-24T17:20:36.810Z,43.20
2019-03-24T17:23:06.504Z,43.30
2019-03-24T17:25:35.958Z,43.80
2019-03-24T17:28:05.630Z,43.80
2019-03-24T17:30:35.191Z,44.10
2019-03-24T17:33:23.680Z,44.50
2019-03-24T17:35:53.302Z,44.60
2019-03-24T17:38:22.810Z,44.80
2019-03-24T17:40:52.283Z,45.00
2019-03-24T17:43:21.814Z,45.60
2019-03-24T17:45:51.370Z,46.10
2019-03-24T17:48:20.922Z,46.50
2019-03-24T17:50:50.561Z,47.50
2019-03-24T17:53:20.119Z,47.80
2019-03-24T17:55:49.687Z,48.20
2019-03-24T17:58:19.320Z,48.70
2019-03-24T18:00:51.546Z,49.20
2019-03-24T18:03:21.081Z,50.30
2019-03-24T18:05:50.706Z,51.20
2019-03-24T18:08:20.418Z,51.80
2019-03-24T18:10:49.884Z,52.30
2019-03-24T18:13:19.434Z,52.70
2019-03-24T18:15:49.059Z,53.30
2019-03-24T18:18:18.701Z,53.80
2019-03-24T18:20:48.428Z,54.20
2019-03-24T18:23:18.100Z,54.90
2019-03-24T18:25:47.721Z,55.10
2019-03-24T18:28:17.450Z,55.50
2019-03-24T18:30:47.082Z,55.60
2019-03-24T18:33:16.711Z,56.00
2019-03-24T18:35:46.363Z,56.50
2019-03-24T18:38:16.012Z,57.70
2019-03-24T18:40:45.651Z,57.90
2019-03-24T18:43:15.334Z,58.30
2019-03-24T18:45:44.972Z,58.60
2019-03-24T18:48:14.717Z,58.60
2019-03-24T18:50:44.355Z,59.30
2019-03-24T18:53:14.087Z,58.50
2019-03-24T18:55:43.635Z,58.90
2019-03-24T18:58:13.195Z,58.80
2019-03-24T19:00:42.684Z,58.70
2019-03-24T19:03:12.368Z,58.50
2019-03-24T19:05:42.007Z,58.80
2019-03-24T19:08:11.995Z,58.70
2019-03-24T19:10:41.612Z,57.60
2019-03-24T19:13:11.225Z,57.00
2019-03-24T19:15:40.877Z,56.80
2019-03-24T19:18:10.431Z,56.50
2019-03-24T19:20:40.010Z,56.60
2019-03-24T19:23:09.541Z,56.60
2019-03-24T19:25:39.094Z,56.60
2019-03-24T19:28:08.647Z,56.70
2019-03-24T19:30:40.177Z,56.50
2019-03-24T19:33:09.985Z,56.70
2019-03-24T19:35:39.745Z,56.60
2019-03-24T19:38:09.413Z,56.30
2019-03-24T19:40:39.150Z,56.10
2019-03-24T19:43:08.806Z,56.40
2019-03-24T19:45:38.453Z,56.50
2019-03-24T19:48:08.139Z,56.70
2019-03-24T19:50:37.804Z,56.80
2019-03-24T19:53:07.739Z,57.00
2019-03-24T19:55:37.316Z,57.00
2019-03-24T19:58:06.971Z,57.60
2019-03-24T20:00:36.463Z,57.80
2019-03-24T20:03:06.186Z,57.80
2019-03-24T20:05:35.902Z,57.60
2019-03-24T20:08:05.515Z,57.80
2019-03-24T20:10:35.051Z,58.00
2019-03-24T20:13:04.797Z,58.00
2019-03-24T20:15:34.428Z,58.10
2019-03-24T20:18:04.414Z,58.40
2019-03-24T20:20:34.939Z,58.80
2019-03-24T20:23:04.671Z,58.70
2019-03-24T20:25:34.227Z,59.10
2019-03-24T20:28:03.929Z,59.60
2019-03-24T20:30:33.639Z,60.00
2019-03-24T20:33:03.327Z,59.90
2019-03-24T20:35:32.914Z,60.20
2019-03-24T20:38:02.450Z,61.20
2019-03-24T20:40:32.016Z,61.80
2019-03-24T20:43:01.583Z,62.40
2019-03-24T20:45:31.203Z,62.50
2019-03-24T20:48:00.667Z,62.70
2019-03-24T20:50:30.319Z,62.40
2019-03-24T20:53:05.644Z,62.20
2019-03-24T20:55:31.100Z,62.20
2019-03-24T20:58:00.673Z,62.10
2019-03-24T21:00:33.941Z,61.80
2019-03-24T21:03:05.124Z,62.40
2019-03-24T21:05:34.754Z,62.80
2019-03-24T21:08:04.450Z,63.00
2019-03-24T21:10:34.002Z,63.50
2019-03-24T21:13:03.688Z,63.70
2019-03-24T21:15:33.351Z,63.70
2019-03-24T21:18:03.159Z,64.40
2019-03-24T21:20:32.782Z,65.00
2019-03-24T21:23:02.404Z,65.30
2019-03-24T21:25:32.050Z,65.40
2019-03-24T21:28:01.689Z,66.10
2019-03-24T21:30:36.117Z,66.10
2019-03-24T21:33:06.258Z,66.20
2019-03-24T21:35:36.328Z,66.40
2019-03-24T21:38:06.600Z,66.50
2019-03-24T21:40:36.241Z,66.60
2019-03-24T21:43:06.594Z,66.20
2019-03-24T21:45:36.489Z,66.90
2019-03-24T21:48:06.240Z,67.50
2019-03-24T21:50:35.874Z,67.30
2019-03-24T21:53:06.023Z,67.30
2019-03-24T21:55:35.730Z,68.00
2019-03-24T21:58:05.506Z,67.70
2019-03-24T22:00:36.595Z,67.60
2019-03-24T22:03:06.739Z,67.70
2019-03-24T22:05:36.931Z,67.20
2019-03-24T22:08:06.680Z,67.20
2019-03-24T22:10:36.402Z,68.20
2019-03-24T22:13:06.344Z,68.20
2019-03-24T22:15:36.037Z,68.70
2019-03-24T22:18:07.303Z,68.10
2019-03-24T22:20:48.261Z,68.40
2019-03-24T22:23:08.302Z,68.80
2019-03-24T22:25:38.000Z,68.60
2019-03-24T22:28:07.774Z,68.40
2019-03-24T22:30:37.416Z,68.10
2019-03-24T22:33:06.874Z,68.60
2019-03-24T22:35:36.451Z,69.30
2019-03-24T22:38:06.144Z,68.90
2019-03-24T22:40:35.790Z,68.70
2019-03-24T22:43:05.511Z,68.90
2019-03-24T22:45:35.115Z,69.60
2019-03-24T22:48:04.731Z,68.40
2019-03-24T22:50:34.207Z,68.70
2019-03-24T22:53:03.955Z,68.50
2019-03-24T22:55:33.659Z,68.60
2019-03-24T22:58:03.204Z,68.70
2019-03-24T23:00:52.716Z,68.90
2019-03-24T23:03:25.137Z,68.40
2019-03-24T23:05:54.495Z,68.30
2019-03-24T23:08:24.098Z,68.70
2019-03-24T23:10:53.627Z,68.70
2019-03-24T23:13:23.192Z,68.90
2019-03-24T23:15:52.725Z,68.80
2019-03-24T23:18:22.267Z,68.80
2019-03-24T23:20:51.872Z,69.00
2019-03-24T23:23:21.469Z,68.90
2019-03-24T23:25:51.019Z,69.10
2019-03-24T23:28:20.482Z,69.60
2019-03-24T23:30:50.135Z,70.10
2019-03-24T23:33:19.742Z,69.40
2019-03-24T23:35:49.239Z,69.60
2019-03-24T23:38:18.880Z,69.40
2019-03-24T23:40:48.406Z,70.00
2019-03-24T23:43:18.018Z,70.20
2019-03-24T23:45:47.553Z,70.50
2019-03-24T23:48:17.236Z,71.00
2019-03-24T23:50:46.782Z,71.20
2019-03-24T23:53:16.309Z,71.00
2019-03-24T23:55:45.861Z,71.00
2019-03-24T23:58:15.408Z,70.80
